Terminal Aerodrome Forecast
Issued by NWS

Home | Current Version | Previous Version | Text Only | Print | Product List | Glossary On
Versions: 1 2 3 4 5 6 7 8 9 10 11 12 13 14 15 16 17 18 19
665
FTUS43 KDVN 261336 AAA
TAFBRL
TAF AMD
KBRL 261336Z 2614/2712 20013KT P6SM BKN080 WS020/23045KT
     FM261700 23013G20KT P6SM BKN100
     FM270000 24005KT P6SM SCT250
     FM270500 18005KT 5SM BR SCT050=

USA.gov is the U.S. government's official web portal to all federal, state and local government web resources and services.